Time;durP1;ratioP1;P1;durP2;ratioP2;P2;SDS_P1;SDS_P2;PMS_P1;PMS_P2;Temp;Humidity;BMP_temperature;BMP_pressure;BME280_temperature;BME280_humidity;BME280_pressure;Samples;Min_cycle;Max_cycle;Signal;HPM_P1;HPM_P2
2021/05/16 00:01:09;;;;;;;2.20;1.20;;;;;;;10.96;63.37;95662.03;5094578;28;20759;-68
2021/05/16 00:03:36;;;;;;;1.67;0.97;;;;;;;11.26;62.45;95657.38;5094597;28;20174;-70
2021/05/16 00:06:02;;;;;;;2.30;1.20;;;;;;;11.33;62.25;95657.41;5085447;28;20515;-69
2021/05/16 00:08:27;;;;;;;6.67;1.80;;;;;;;11.06;62.76;95668.53;5092666;28;20428;-69
2021/05/16 00:10:53;;;;;;;4.70;1.33;;;;;;;11.10;62.74;95674.19;5078460;28;20455;-68
2021/05/16 00:13:19;;;;;;;1.97;1.03;;;;;;;11.05;62.71;95674.78;5093936;28;20253;-68
2021/05/16 00:15:45;;;;;;;2.13;1.30;;;;;;;11.10;63.12;95682.06;5094409;28;20212;-68
2021/05/16 00:18:10;;;;;;;2.40;1.30;;;;;;;11.22;62.60;95671.84;5093609;28;20443;-68
2021/05/16 00:20:36;;;;;;;3.00;1.20;;;;;;;11.25;62.41;95676.72;5092856;28;20178;-69
2021/05/16 00:23:03;;;;;;;2.00;1.20;;;;;;;11.26;62.57;95677.50;5092792;28;20269;-69
2021/05/16 00:25:30;;;;;;;1.30;1.10;;;;;;;11.02;63.71;95688.28;5076385;28;20416;-69
2021/05/16 00:27:56;;;;;;;5.77;1.57;;;;;;;11.13;63.29;95683.50;5087606;28;20452;-68
2021/05/16 00:30:25;;;;;;;1.67;1.10;;;;;;;11.43;62.21;95684.06;5093935;28;20786;-67
2021/05/16 00:32:52;;;;;;;1.90;1.20;;;;;;;11.27;62.49;95684.38;5094630;28;20460;-69
2021/05/16 00:35:19;;;;;;;3.07;1.33;;;;;;;10.99;63.65;95679.97;5077760;28;20408;-68
2021/05/16 00:37:45;;;;;;;2.33;1.30;;;;;;;11.16;63.25;95678.69;5094259;28;20938;-68
2021/05/16 00:40:11;;;;;;;4.50;1.30;;;;;;;11.34;62.85;95685.25;5086119;28;20426;-68
2021/05/16 00:42:37;;;;;;;2.43;1.40;;;;;;;11.30;62.91;95682.19;5092246;28;20174;-68
2021/05/16 00:45:05;;;;;;;2.43;1.40;;;;;;;10.67;65.13;95674.34;5092255;28;20477;-68
2021/05/16 00:47:31;;;;;;;4.40;1.30;;;;;;;11.37;63.07;95674.34;5091204;28;20478;-68
2021/05/16 00:49:57;;;;;;;4.40;1.27;;;;;;;10.91;63.95;95676.53;5093148;28;20424;-65
2021/05/16 00:52:24;;;;;;;7.90;1.30;;;;;;;11.03;64.11;95673.38;5084964;28;20247;-68
2021/05/16 00:54:50;;;;;;;2.60;1.10;;;;;;;10.99;64.15;95669.50;5092044;28;20443;-68
2021/05/16 00:57:16;;;;;;;2.00;1.23;;;;;;;10.91;64.37;95670.44;5077314;28;20477;-67
2021/05/16 00:59:42;;;;;;;2.87;1.50;;;;;;;10.74;65.09;95664.69;5068537;28;20432;-68
2021/05/16 01:02:08;;;;;;;3.73;1.50;;;;;;;11.58;62.56;95660.31;5036449;28;20421;-69
2021/05/16 01:04:34;;;;;;;3.10;1.80;;;;;;;11.44;63.01;95658.63;5068662;28;20178;-68
2021/05/16 01:06:59;;;;;;;4.70;1.40;;;;;;;11.29;62.79;95651.72;5080646;28;20178;-67
2021/05/16 01:09:25;;;;;;;3.00;1.43;;;;;;;11.54;62.43;95645.97;5085097;28;20590;-68
2021/05/16 01:11:51;;;;;;;5.30;1.50;;;;;;;11.67;61.89;95660.97;5092835;28;20723;-70
2021/05/16 01:14:23;;;;;;;2.43;1.60;;;;;;;11.49;62.46;95657.03;5084365;28;20185;-68
2021/05/16 01:16:49;;;;;;;2.60;1.20;;;;;;;11.65;61.83;95649.84;5093376;28;20412;-68
2021/05/16 01:19:16;;;;;;;2.60;1.23;;;;;;;11.62;62.06;95652.84;5093064;28;20454;-68
2021/05/16 01:21:42;;;;;;;3.80;1.40;;;;;;;11.71;61.54;95664.00;5091893;28;20522;-68
2021/05/16 01:24:18;;;;;;;3.27;1.40;;;;;;;11.38;63.05;95660.22;5091508;28;20560;-68
2021/05/16 01:26:45;;;;;;;2.13;1.20;;;;;;;11.30;62.85;95655.16;5092326;28;20184;-68
2021/05/16 01:29:14;;;;;;;4.80;1.50;;;;;;;11.53;62.49;95653.03;5087059;28;20452;-68
2021/05/16 01:31:40;;;;;;;3.80;1.37;;;;;;;11.64;62.21;95653.47;5092342;28;20506;-68
2021/05/16 01:34:06;;;;;;;3.23;1.20;;;;;;;11.56;62.54;95656.28;5092228;28;20420;-67
2021/05/16 01:36:33;;;;;;;2.70;1.10;;;;;;;11.49;63.46;95672.00;5092728;28;20416;-68
2021/05/16 01:38:59;;;;;;;4.23;1.77;;;;;;;11.44;64.24;95656.00;5083425;28;20442;-69
2021/05/16 01:41:24;;;;;;;2.83;1.20;;;;;;;11.59;64.03;95648.81;5091195;28;20423;-69
2021/05/16 01:43:51;;;;;;;5.13;1.47;;;;;;;11.62;64.66;95651.06;5085160;28;20198;-69
2021/05/16 01:46:16;;;;;;;5.00;1.60;;;;;;;11.42;65.83;95655.41;5092581;28;20231;-69
2021/05/16 01:48:42;;;;;;;5.20;1.60;;;;;;;11.56;65.18;95651.81;5092272;28;20436;-68
2021/05/16 01:51:09;;;;;;;2.37;1.30;;;;;;;11.59;65.64;95645.41;5092060;28;20181;-68
2021/05/16 01:53:35;;;;;;;3.20;1.53;;;;;;;11.34;66.47;95651.16;5093590;28;20197;-68
2021/05/16 01:56:01;;;;;;;4.77;1.67;;;;;;;11.48;66.41;95644.94;5091901;28;20416;-68
2021/05/16 01:58:27;;;;;;;3.63;1.63;;;;;;;11.53;66.39;95642.53;5090906;28;20817;-69
2021/05/16 02:00:53;;;;;;;5.47;1.70;;;;;;;11.62;65.93;95640.56;5083749;28;20179;-69
2021/05/16 02:03:19;;;;;;;7.47;1.77;;;;;;;11.12;68.09;95653.84;5088953;28;20417;-68
2021/05/16 02:05:48;;;;;;;3.60;1.70;;;;;;;11.42;67.20;95632.63;5087534;28;20582;-68
2021/05/16 02:08:14;;;;;;;6.67;1.60;;;;;;;11.22;67.64;95646.44;5091551;28;20439;-69
2021/05/16 02:10:40;;;;;;;7.40;1.50;;;;;;;11.32;67.13;95647.91;5084117;28;20427;-69
2021/05/16 02:13:05;;;;;;;1.50;1.40;;;;;;;11.44;66.91;95642.91;5096478;28;20257;-69
2021/05/16 02:15:31;;;;;;;1.90;1.33;;;;;;;11.66;66.32;95641.75;5097043;28;20513;-68
2021/05/16 02:17:59;;;;;;;2.60;1.50;;;;;;;11.56;66.45;95640.53;5093211;28;20263;-68
2021/05/16 02:20:25;;;;;;;1.93;1.50;;;;;;;11.58;66.95;95641.16;5089415;28;20653;-69
2021/05/16 02:22:50;;;;;;;4.37;1.80;;;;;;;11.37;67.73;95635.00;5084656;28;20412;-68
2021/05/16 02:25:16;;;;;;;6.83;1.93;;;;;;;11.33;68.28;95639.84;5091679;28;20212;-68
2021/05/16 02:27:43;;;;;;;5.67;2.27;;;;;;;11.52;67.94;95640.91;5089306;28;20240;-68
2021/05/16 02:30:10;;;;;;;2.20;1.50;;;;;;;11.41;68.34;95638.88;5090733;28;20231;-68
2021/05/16 02:32:37;;;;;;;3.03;1.60;;;;;;;11.52;68.37;95640.91;5091781;28;20477;-68
2021/05/16 02:35:04;;;;;;;2.10;1.60;;;;;;;11.66;67.80;95643.59;5090464;28;20793;-70
2021/05/16 02:37:30;;;;;;;2.70;1.37;;;;;;;11.37;68.62;95642.88;5086190;28;20789;-70
2021/05/16 02:39:55;;;;;;;2.77;2.10;;;;;;;11.48;68.33;95644.94;5081244;28;20523;-68
2021/05/16 02:42:21;;;;;;;3.10;1.60;;;;;;;11.27;69.12;95660.78;5083795;28;20186;-69
2021/05/16 02:44:46;;;;;;;2.70;1.60;;;;;;;11.51;68.31;95654.25;5090064;28;20181;-69
2021/05/16 02:47:12;;;;;;;2.67;2.23;;;;;;;11.50;67.90;95652.63;5091713;28;20269;-69
2021/05/16 02:49:38;;;;;;;4.37;2.20;;;;;;;11.52;68.17;95653.25;5086385;28;20254;-68
2021/05/16 02:52:03;;;;;;;8.47;2.27;;;;;;;11.63;67.61;95649.22;5094532;28;20329;-68
2021/05/16 02:54:29;;;;;;;2.33;1.70;;;;;;;11.61;67.46;95648.59;5109959;28;20193;-69
2021/05/16 02:56:55;;;;;;;5.53;1.97;;;;;;;11.58;67.81;95643.78;5108649;28;20174;-70
2021/05/16 02:59:23;;;;;;;5.30;2.20;;;;;;;10.95;70.53;95650.72;5091294;28;20247;-71
2021/05/16 03:01:48;;;;;;;2.60;1.90;;;;;;;11.21;69.71;95651.88;5096496;28;20190;-71
2021/05/16 03:04:14;;;;;;;3.93;1.77;;;;;;;11.57;68.91;95639.53;5095957;28;20438;-68
2021/05/16 03:06:40;;;;;;;3.37;1.70;;;;;;;10.89;70.23;95633.16;5096900;28;20182;-69
2021/05/16 03:09:06;;;;;;;6.47;2.40;;;;;;;11.68;67.98;95634.50;5090159;28;20576;-68
2021/05/16 03:11:31;;;;;;;3.03;1.70;;;;;;;11.52;68.57;95635.66;5093823;28;20423;-68
2021/05/16 03:13:57;;;;;;;5.17;2.00;;;;;;;11.75;67.65;95633.72;5105100;28;20178;-69
2021/05/16 03:16:23;;;;;;;2.83;1.70;;;;;;;11.28;68.94;95638.81;5092981;28;20242;-68
2021/05/16 03:18:49;;;;;;;4.07;2.30;;;;;;;11.24;69.69;95627.91;5089084;28;20439;-68
2021/05/16 03:21:14;;;;;;;3.97;1.83;;;;;;;11.27;69.11;95626.69;5080231;28;20188;-68
2021/05/16 03:23:40;;;;;;;2.47;1.60;;;;;;;11.49;68.73;95624.78;5083247;28;20600;-69
2021/05/16 03:26:05;;;;;;;5.23;1.83;;;;;;;11.16;69.56;95626.25;5096247;28;20542;-67
2021/05/16 03:28:40;;;;;;;2.90;1.87;;;;;;;11.18;69.24;95633.91;5091017;28;20257;-69
2021/05/16 03:31:06;;;;;;;4.33;1.83;;;;;;;11.69;68.30;95616.97;5069655;28;20186;-68
2021/05/16 03:33:32;;;;;;;4.37;1.90;;;;;;;11.58;68.31;95628.03;5075369;28;20563;-68
2021/05/16 03:35:57;;;;;;;2.87;1.70;;;;;;;11.81;67.63;95625.88;5082193;28;20182;-69
2021/05/16 03:38:23;;;;;;;2.40;1.50;;;;;;;11.89;67.08;95624.88;5074631;28;20206;-68
2021/05/16 03:40:49;;;;;;;3.77;1.50;;;;;;;11.74;66.71;95626.84;5075508;28;20242;-69
2021/05/16 03:43:14;;;;;;;1.80;1.37;;;;;;;11.76;67.47;95630.09;5083651;28;20190;-69
2021/05/16 03:45:40;;;;;;;1.43;1.30;;;;;;;11.93;66.50;95627.91;5074894;28;20790;-68
2021/05/16 03:48:06;;;;;;;4.03;1.50;;;;;;;11.93;66.08;95639.22;5074656;28;20198;-68
2021/05/16 03:50:32;;;;;;;5.17;1.70;;;;;;;11.73;67.31;95646.22;5074512;28;20417;-68
2021/05/16 03:52:58;;;;;;;4.37;1.67;;;;;;;11.58;67.44;95638.53;5073262;28;20448;-69
2021/05/16 03:55:23;;;;;;;5.83;1.90;;;;;;;12.08;65.98;95633.84;5073010;28;20178;-69
2021/05/16 03:57:50;;;;;;;1.20;1.10;;;;;;;12.12;65.96;95632.41;5073744;28;20202;-68
2021/05/16 04:00:16;;;;;;;6.43;1.63;;;;;;;11.58;66.97;95638.53;5082643;28;20274;-69
2021/05/16 04:02:42;;;;;;;4.33;1.57;;;;;;;11.94;66.64;95643.44;5068942;28;20425;-68
2021/05/16 04:05:08;;;;;;;4.40;1.90;;;;;;;11.67;67.36;95638.13;5090350;28;20431;-69
2021/05/16 04:07:34;;;;;;;3.70;1.57;;;;;;;11.74;67.71;95632.91;5074503;28;20440;-68
2021/05/16 04:10:00;;;;;;;5.33;1.70;;;;;;;12.09;66.56;95638.06;5081450;28;20420;-69
2021/05/16 04:12:25;;;;;;;6.37;1.50;;;;;;;12.21;65.73;95637.47;5073668;28;20221;-68
2021/05/16 04:14:51;;;;;;;2.03;1.60;;;;;;;12.20;65.51;95643.75;5081193;28;20190;-68
2021/05/16 04:17:17;;;;;;;1.77;1.50;;;;;;;12.11;65.86;95633.41;5081809;28;20182;-69
2021/05/16 04:19:43;;;;;;;5.03;1.60;;;;;;;12.12;65.83;95632.41;5080752;28;20649;-67
2021/05/16 04:22:09;;;;;;;2.17;1.63;;;;;;;12.08;66.26;95628.59;5083540;28;20458;-69
2021/05/16 04:24:34;;;;;;;4.20;1.50;;;;;;;11.97;66.54;95626.50;5074082;28;20575;-69
2021/05/16 04:27:00;;;;;;;2.37;1.37;;;;;;;11.90;66.96;95634.38;5073516;28;20193;-68
2021/05/16 04:29:26;;;;;;;2.30;1.23;;;;;;;11.92;67.17;95627.09;5072677;28;20214;-69
2021/05/16 04:31:51;;;;;;;3.07;1.33;;;;;;;11.73;67.44;95630.50;5074678;28;20184;-68
2021/05/16 04:34:17;;;;;;;3.23;1.50;;;;;;;11.66;67.72;95631.25;5072309;28;20551;-69
2021/05/16 04:36:42;;;;;;;2.90;1.20;;;;;;;11.57;68.48;95634.28;5080389;28;20622;-70
2021/05/16 04:39:08;;;;;;;4.00;1.60;;;;;;;11.27;69.24;95637.19;5091701;28;20201;-69
2021/05/16 04:41:34;;;;;;;2.50;1.40;;;;;;;11.59;68.67;95634.91;5080549;28;20182;-69
2021/05/16 04:44:00;;;;;;;6.43;1.27;;;;;;;11.58;68.02;95639.31;5072352;28;20633;-70
2021/05/16 04:46:26;;;;;;;2.33;1.43;;;;;;;11.65;68.24;95639.34;5073192;28;20175;-69
2021/05/16 04:48:52;;;;;;;3.13;1.30;;;;;;;11.57;68.07;95647.41;5081512;28;20479;-69
2021/05/16 04:51:18;;;;;;;3.30;2.13;;;;;;;11.67;68.06;95638.13;5079985;28;20507;-70
2021/05/16 04:53:44;;;;;;;3.13;1.50;;;;;;;11.94;66.91;95640.81;5072967;28;20456;-69
2021/05/16 04:56:09;;;;;;;2.50;1.27;;;;;;;12.06;66.90;95635.03;5072800;28;20178;-68
2021/05/16 04:58:36;;;;;;;1.97;1.40;;;;;;;11.94;66.90;95640.03;5077072;28;20208;-69
2021/05/16 05:01:02;;;;;;;2.80;1.30;;;;;;;12.03;66.78;95644.13;5068125;28;20185;-70
2021/05/16 05:03:28;;;;;;;1.60;1.20;;;;;;;12.08;66.54;95638.25;5072378;28;20546;-69
2021/05/16 05:05:54;;;;;;;6.40;1.40;;;;;;;12.17;66.68;95652.81;5072590;28;20178;-68
2021/05/16 05:08:21;;;;;;;6.90;1.40;;;;;;;12.10;65.95;95642.28;5063805;28;20445;-68
2021/05/16 05:10:47;;;;;;;4.70;1.03;;;;;;;12.14;66.05;95643.53;5086218;28;20443;-68
2021/05/16 05:13:12;;;;;;;1.60;1.40;;;;;;;12.35;65.46;95649.59;5072919;28;20489;-69
2021/05/16 05:15:38;;;;;;;2.40;1.03;;;;;;;12.25;65.25;95650.00;5071189;28;20182;-68
2021/05/16 05:18:04;;;;;;;2.07;1.17;;;;;;;12.22;65.79;95647.78;5070848;28;20202;-69
2021/05/16 05:20:30;;;;;;;2.13;0.93;;;;;;;12.39;65.49;95650.81;5071528;28;21076;-70
2021/05/16 05:22:55;;;;;;;1.90;0.97;;;;;;;12.23;66.04;95651.19;5080465;28;20175;-68
2021/05/16 05:25:21;;;;;;;3.23;1.03;;;;;;;12.13;66.03;95657.66;5079599;28;20272;-69
2021/05/16 05:27:47;;;;;;;3.47;1.23;;;;;;;12.19;66.22;95647.38;5071501;28;20214;-69
2021/05/16 05:30:13;;;;;;;2.03;1.30;;;;;;;12.41;65.50;95654.06;5067231;28;20613;-69
2021/05/16 05:32:39;;;;;;;1.53;1.10;;;;;;;12.46;65.96;95655.28;5071837;28;20626;-69
2021/05/16 05:35:06;;;;;;;2.40;1.27;;;;;;;12.15;66.79;95660.09;5071473;28;20500;-69
2021/05/16 05:37:32;;;;;;;1.30;1.07;;;;;;;12.38;66.70;95664.16;5071118;28;20281;-69
2021/05/16 05:39:57;;;;;;;2.07;1.43;;;;;;;12.28;66.19;95652.25;5069945;28;20512;-70
2021/05/16 05:42:25;;;;;;;7.03;1.47;;;;;;;12.29;66.66;95651.19;5092044;28;20627;-70
2021/05/16 05:44:51;;;;;;;1.97;0.93;;;;;;;12.47;66.04;95651.63;5090414;28;20804;-69
2021/05/16 05:47:17;;;;;;;1.40;1.07;;;;;;;12.42;65.97;95653.03;5091536;28;20419;-69
2021/05/16 05:49:42;;;;;;;2.60;1.17;;;;;;;12.84;65.10;95652.00;5091859;28;20186;-69
2021/05/16 05:52:08;;;;;;;2.07;1.47;;;;;;;12.97;64.69;95645.91;5091587;28;20683;-69
2021/05/16 05:54:35;;;;;;;1.87;1.10;;;;;;;12.86;65.46;95652.59;5091505;28;20223;-69
2021/05/16 05:57:00;;;;;;;2.23;1.27;;;;;;;12.82;65.16;95652.19;5089705;28;20177;-68
2021/05/16 05:59:26;;;;;;;1.97;1.00;;;;;;;12.79;65.44;95649.97;5091655;28;20442;-69
2021/05/16 06:01:51;;;;;;;3.10;1.10;;;;;;;12.88;65.04;95661.09;5091735;28;20184;-69
2021/05/16 06:04:17;;;;;;;2.63;1.00;;;;;;;12.79;65.60;95654.44;5090516;28;20174;-69
2021/05/16 06:06:43;;;;;;;8.70;1.10;;;;;;;12.86;64.91;95650.78;5074903;28;20702;-68
2021/05/16 06:09:08;;;;;;;4.60;1.00;;;;;;;12.97;64.20;95651.19;5091393;28;20201;-69
2021/05/16 06:11:34;;;;;;;1.63;1.00;;;;;;;13.30;63.63;95651.09;5089511;28;20307;-68
2021/05/16 06:13:59;;;;;;;3.90;0.90;;;;;;;13.28;63.88;95663.66;5090852;28;20201;-69
2021/05/16 06:16:25;;;;;;;1.67;1.00;;;;;;;13.36;64.23;95660.78;5091855;28;20173;-69
2021/05/16 06:18:51;;;;;;;1.50;1.00;;;;;;;13.72;62.86;95660.50;5091848;28;20224;-68
2021/05/16 06:21:17;;;;;;;2.57;1.40;;;;;;;14.12;61.29;95647.06;5084681;28;20839;-69
2021/05/16 06:24:01;;;;;;;3.40;1.10;;;;;;;13.61;61.92;95652.22;5082783;28;20494;-69
2021/05/16 06:26:28;;;;;;;1.50;0.90;;;;;;;13.86;61.49;95653.31;5096785;28;20181;-70
2021/05/16 06:28:53;;;;;;;1.87;0.90;;;;;;;14.03;60.30;95656.25;5090584;28;20972;-69
2021/05/16 06:31:20;;;;;;;1.87;0.80;;;;;;;13.85;61.14;95649.91;5095442;28;20420;-69
2021/05/16 06:33:46;;;;;;;1.80;0.87;;;;;;;13.24;62.62;95656.38;5091909;28;20197;-70
2021/05/16 06:36:11;;;;;;;1.80;0.90;;;;;;;13.57;61.35;95650.22;5077802;28;20419;-68
2021/05/16 06:38:37;;;;;;;2.33;1.00;;;;;;;13.57;60.74;95658.09;5094248;28;20198;-68
2021/05/16 06:41:02;;;;;;;3.87;0.87;;;;;;;13.48;60.58;95647.03;5093116;28;20257;-68
2021/05/16 06:43:28;;;;;;;2.33;0.80;;;;;;;13.62;60.67;95655.66;5086422;28;20243;-68
2021/05/16 06:45:53;;;;;;;1.57;0.80;;;;;;;14.40;59.51;95654.59;5070397;28;20269;-69
2021/05/16 06:48:19;;;;;;;3.97;1.30;;;;;;;14.84;56.82;95648.59;5078402;28;20193;-69
2021/05/16 06:50:44;;;;;;;7.50;3.17;;;;;;;15.00;56.45;95648.03;5094877;28;20170;-69
2021/05/16 06:53:10;;;;;;;3.30;0.97;;;;;;;14.83;56.18;95646.97;5094692;28;20193;-69
2021/05/16 06:55:36;;;;;;;0.93;0.70;;;;;;;14.48;56.47;95652.72;5094649;28;20688;-71
2021/05/16 06:58:01;;;;;;;3.77;0.90;;;;;;;13.58;59.48;95667.63;5094192;28;20201;-68
2021/05/16 07:00:27;;;;;;;1.77;0.70;;;;;;;14.51;57.80;95652.28;5095050;28;20181;-69
2021/05/16 07:02:52;;;;;;;5.47;1.30;;;;;;;14.71;56.81;95660.06;5086839;28;20173;-69
2021/05/16 07:05:18;;;;;;;1.67;0.80;;;;;;;14.84;55.33;95661.75;5094723;28;20662;-68
2021/05/16 07:07:44;;;;;;;1.30;0.80;;;;;;;14.80;55.23;95658.75;5094206;28;20198;-70
2021/05/16 07:10:10;;;;;;;2.43;0.80;;;;;;;14.72;55.52;95656.41;5092380;28;20260;-69
2021/05/16 07:12:35;;;;;;;2.00;0.90;;;;;;;14.40;56.42;95649.34;5083460;28;20205;-69
2021/05/16 07:15:01;;;;;;;3.10;1.10;;;;;;;14.78;56.56;95652.88;5073147;28;20650;-69
2021/05/16 07:17:27;;;;;;;4.53;0.80;;;;;;;15.01;55.73;95654.09;5094092;28;20206;-71
2021/05/16 07:19:53;;;;;;;2.20;1.00;;;;;;;14.85;56.44;95656.28;5095345;28;20532;-69
2021/05/16 07:22:18;;;;;;;1.73;0.80;;;;;;;14.33;57.32;95653.81;5094483;28;20901;-69
2021/05/16 07:24:44;;;;;;;3.07;1.03;;;;;;;14.57;56.66;95654.06;5095219;28;20182;-68
2021/05/16 07:27:10;;;;;;;2.60;1.03;;;;;;;14.59;56.13;95652.00;5095111;28;20188;-69
2021/05/16 07:29:35;;;;;;;3.90;1.17;;;;;;;14.63;55.58;95655.00;5088206;28;20522;-68
2021/05/16 07:32:01;;;;;;;4.20;1.37;;;;;;;15.07;54.29;95642.69;5076907;28;20255;-69
2021/05/16 07:34:26;;;;;;;2.90;0.70;;;;;;;15.00;53.96;95655.13;5093495;28;20173;-69
2021/05/16 07:36:52;;;;;;;1.93;0.90;;;;;;;15.24;52.89;95652.66;5094108;28;20174;-68
2021/05/16 07:39:18;;;;;;;3.40;1.03;;;;;;;15.36;52.23;95650.91;5103620;28;20201;-69
2021/05/16 07:41:43;;;;;;;2.80;1.00;;;;;;;14.59;54.78;95652.84;5081726;28;20178;-69
2021/05/16 07:44:09;;;;;;;2.60;0.97;;;;;;;14.62;54.55;95656.84;5078088;28;20175;-69
2021/05/16 07:46:35;;;;;;;3.67;1.10;;;;;;;15.08;52.93;95654.03;5087357;28;20181;-68
2021/05/16 07:49:01;;;;;;;2.97;1.70;;;;;;;15.26;53.17;95650.59;5094722;28;20205;-67
2021/05/16 07:51:27;;;;;;;1.80;0.87;;;;;;;16.05;50.76;95649.88;5095527;28;20424;-68
2021/05/16 07:53:55;;;;;;;1.60;0.97;;;;;;;15.55;50.67;95648.25;5100725;28;20534;-69
2021/05/16 07:56:22;;;;;;;4.03;1.10;;;;;;;15.76;49.91;95650.41;5080068;28;20175;-69
2021/05/16 07:58:47;;;;;;;4.73;1.17;;;;;;;15.45;51.10;95654.84;5095678;28;20486;-69
2021/05/16 08:01:13;;;;;;;3.83;0.90;;;;;;;14.83;52.35;95665.44;5078688;28;20503;-68
2021/05/16 08:03:38;;;;;;;3.73;1.30;;;;;;;14.43;53.55;95662.06;5095239;28;20166;-70
2021/05/16 08:06:04;;;;;;;5.37;1.13;;;;;;;14.52;55.14;95661.81;5093345;28;20177;-69
2021/05/16 08:08:30;;;;;;;3.60;0.80;;;;;;;13.92;59.19;95663.81;5092469;28;20690;-69
2021/05/16 08:10:55;;;;;;;2.67;0.90;;;;;;;13.24;62.66;95670.31;5096339;28;20169;-70
2021/05/16 08:13:21;;;;;;;4.10;1.33;;;;;;;13.76;62.56;95675.66;5092750;28;20666;-69
2021/05/16 08:15:50;;;;;;;4.40;1.60;;;;;;;13.65;63.09;95663.94;5095435;28;20182;-70
2021/05/16 08:18:15;;;;;;;3.83;1.10;;;;;;;13.55;64.05;95660.97;5093676;28;20194;-70
2021/05/16 08:20:41;;;;;;;1.97;0.90;;;;;;;13.98;63.30;95660.34;5093461;28;20954;-69
2021/05/16 08:23:07;;;;;;;4.20;1.37;;;;;;;14.10;62.74;95649.94;5076142;28;20189;-68
2021/05/16 08:25:36;;;;;;;2.60;1.20;;;;;;;14.14;63.19;95655.56;5087767;28;20171;-69
2021/05/16 08:28:02;;;;;;;3.87;1.43;;;;;;;14.44;62.22;95657.63;5068847;28;20441;-68
2021/05/16 08:30:28;;;;;;;6.00;1.40;;;;;;;14.78;61.23;95652.09;5060557;28;20598;-68
2021/05/16 08:32:54;;;;;;;3.40;1.30;;;;;;;15.20;60.49;95650.47;5068813;28;20460;-68
2021/05/16 08:35:20;;;;;;;6.23;1.30;;;;;;;15.11;58.77;95648.31;5073285;28;20997;-70
2021/05/16 08:37:46;;;;;;;4.73;1.57;;;;;;;15.75;58.24;95646.16;5088691;28;20524;-70
2021/05/16 08:40:12;;;;;;;6.93;1.37;;;;;;;15.35;58.19;95641.38;5087387;28;20833;-69
2021/05/16 08:42:38;;;;;;;1.90;1.30;;;;;;;15.93;57.24;95639.25;5093368;28;20181;-68
2021/05/16 08:45:10;;;;;;;1.40;0.93;;;;;;;16.16;57.02;95641.19;5091667;28;20427;-68
2021/05/16 08:47:37;;;;;;;3.10;1.20;;;;;;;15.54;55.95;95642.16;5091887;28;20663;-68
2021/05/16 08:50:05;;;;;;;2.97;1.23;;;;;;;16.15;55.67;95644.84;5075527;28;20490;-68
2021/05/16 08:52:30;;;;;;;4.70;1.67;;;;;;;16.25;54.52;95634.53;5093226;28;20593;-68
2021/05/16 08:54:56;;;;;;;4.70;1.40;;;;;;;16.59;55.18;95628.72;5076064;28;20953;-68
2021/05/16 08:57:23;;;;;;;4.17;1.60;;;;;;;15.79;54.92;95635.97;5092792;28;20178;-67
2021/05/16 09:00:18;;;;;;;2.57;1.00;;;;;;;15.84;55.49;95638.72;5092744;28;20178;-68
2021/05/16 09:03:01;;;;;;;1.80;1.00;;;;;;;15.59;55.01;95630.94;5093198;28;20415;-67
2021/05/16 09:05:35;;;;;;;5.40;1.63;;;;;;;16.04;53.43;95630.56;5093445;28;20472;-67
2021/05/16 09:08:16;;;;;;;5.70;1.50;;;;;;;16.80;52.29;95627.34;5091540;28;20451;-68
2021/05/16 09:10:45;;;;;;;2.40;1.10;;;;;;;17.45;50.35;95622.09;5090711;28;20835;-69
2021/05/16 09:13:21;;;;;;;4.63;1.43;;;;;;;16.99;51.03;95625.41;5092773;28;20792;-68
2021/05/16 09:16:00;;;;;;;6.60;1.40;;;;;;;16.70;49.13;95627.09;5094565;28;20487;-69
2021/05/16 09:18:35;;;;;;;3.23;1.20;;;;;;;17.20;47.26;95629.28;5093622;28;20859;-68
2021/05/16 09:21:22;;;;;;;10.93;1.53;;;;;;;17.57;45.04;95622.88;5059012;28;20933;-69
2021/05/16 09:23:49;;;;;;;2.97;1.20;;;;;;;17.45;44.16;95636.13;5093879;28;20893;-68
2021/05/16 09:26:15;;;;;;;7.70;1.37;;;;;;;17.39;44.44;95629.13;5077153;28;20420;-68
2021/05/16 09:28:41;;;;;;;4.57;1.50;;;;;;;17.09;43.73;95616.09;5087634;28;20486;-69
2021/05/16 09:31:08;;;;;;;4.57;1.73;;;;;;;17.55;42.53;95616.22;5075859;28;20249;-68
2021/05/16 09:33:34;;;;;;;7.00;1.27;;;;;;;17.54;42.04;95619.91;5079901;28;20202;-69
2021/05/16 09:36:05;;;;;;;5.77;1.70;;;;;;;17.13;43.00;95611.94;5087287;28;20436;-68
2021/05/16 09:38:32;;;;;;;4.83;1.93;;;;;;;17.75;42.06;95602.56;5092183;28;20949;-68
2021/05/16 09:40:58;;;;;;;8.00;2.20;;;;;;;18.28;42.13;95595.28;5076532;28;20427;-69
2021/05/16 09:43:27;;;;;;;4.10;1.43;;;;;;;18.79;40.64;95599.75;5088178;28;20424;-66
2021/05/16 09:45:52;;;;;;;4.10;1.67;;;;;;;19.14;40.18;95606.59;5087109;28;20480;-67
2021/05/16 09:48:47;;;;;;;6.97;1.73;;;;;;;18.32;40.10;95596.41;5092207;28;20945;-69
2021/05/16 09:51:21;;;;;;;5.70;1.47;;;;;;;17.26;40.42;95606.41;5092441;28;20197;-68
2021/05/16 09:53:59;;;;;;;4.97;1.60;;;;;;;18.41;39.36;95596.78;5092638;28;20474;-68
2021/05/16 09:56:36;;;;;;;5.13;1.77;;;;;;;17.56;40.86;95601.94;5092537;28;20438;-68
2021/05/16 09:59:03;;;;;;;3.87;1.10;;;;;;;17.32;41.07;95612.59;5083380;28;20446;-68
2021/05/16 10:01:30;;;;;;;7.77;1.30;;;;;;;17.69;39.60;95603.47;5094184;28;20463;-68
2021/05/16 10:04:00;;;;;;;3.70;1.07;;;;;;;17.32;40.34;95602.81;5091495;28;20455;-68
2021/05/16 10:06:27;;;;;;;3.87;1.10;;;;;;;16.99;40.25;95598.13;5073435;28;20424;-67
2021/05/16 10:08:52;;;;;;;4.17;1.70;;;;;;;17.54;38.64;95588.91;5040469;28;20444;-69
2021/05/16 10:11:21;;;;;;;3.33;1.30;;;;;;;17.65;38.36;95582.75;5088943;28;20526;-67
2021/05/16 10:13:53;;;;;;;7.43;1.10;;;;;;;17.46;37.88;95582.13;5091049;28;20680;-67
2021/05/16 10:16:20;;;;;;;6.57;1.13;;;;;;;17.82;37.04;95574.06;5090051;28;20889;-68
2021/05/16 10:18:47;;;;;;;4.20;1.17;;;;;;;17.99;36.77;95570.66;5091718;28;20504;-68
2021/05/16 10:21:13;;;;;;;6.30;1.47;;;;;;;18.58;36.55;95568.41;5090907;28;20502;-67
2021/05/16 10:23:40;;;;;;;3.70;1.00;;;;;;;19.74;35.33;95557.09;5090552;28;20458;-68
2021/05/16 10:26:21;;;;;;;4.50;1.10;;;;;;;19.80;34.89;95553.41;5083933;28;20446;-68
2021/05/16 10:29:03;;;;;;;4.50;1.30;;;;;;;19.31;36.21;95546.28;5085551;28;20489;-68
2021/05/16 10:31:50;;;;;;;2.97;1.50;;;;;;;18.50;38.10;95563.53;5083813;28;20910;-68
2021/05/16 10:34:25;;;;;;;4.33;1.50;;;;;;;19.21;36.19;95561.28;5090372;28;20420;-68
2021/05/16 10:36:51;;;;;;;6.07;1.30;;;;;;;19.44;36.19;95550.41;5086947;28;21016;-67
2021/05/16 10:39:38;;;;;;;6.83;1.47;;;;;;;18.93;36.21;95555.06;5089247;28;20822;-67
2021/05/16 10:42:18;;;;;;;2.60;0.97;;;;;;;18.65;37.04;95565.59;5072982;28;20421;-68
2021/05/16 10:45:12;;;;;;;5.43;1.30;;;;;;;17.99;38.34;95568.81;5092904;28;20432;-68
2021/05/16 10:47:45;;;;;;;2.93;1.10;;;;;;;18.49;37.75;95551.31;5092452;28;20973;-68
2021/05/16 10:50:21;;;;;;;6.40;1.43;;;;;;;17.92;38.58;95560.19;5094430;28;20423;-68
2021/05/16 10:53:02;;;;;;;4.40;1.20;;;;;;;18.35;37.10;95550.03;5094511;28;20498;-69
2021/05/16 10:55:30;;;;;;;7.03;1.70;;;;;;;19.41;36.02;95536.81;5092325;28;20419;-68
2021/05/16 10:57:56;;;;;;;4.80;1.40;;;;;;;19.78;35.40;95528.94;5093062;28;20518;-68
2021/05/16 11:00:22;;;;;;;3.80;1.03;;;;;;;19.13;35.19;95523.53;5092894;28;21104;-68
2021/05/16 11:03:05;;;;;;;3.17;1.17;;;;;;;19.11;34.80;95520.31;5093253;28;20424;-68
2021/05/16 11:08:31;;;;;;;3.27;1.20;;;;;;;19.19;34.66;95501.28;5093232;28;20507;-68
2021/05/16 11:11:02;;;;;;;2.90;1.00;;;;;;;19.14;34.49;95503.06;5075719;28;20474;-67
2021/05/16 11:13:29;;;;;;;3.13;1.17;;;;;;;19.97;33.77;95495.94;5095430;28;20459;-70
2021/05/16 11:16:06;;;;;;;2.60;1.30;;;;;;;20.79;32.50;95498.34;5096956;28;20424;-68
2021/05/16 11:18:32;;;;;;;7.80;1.30;;;;;;;19.80;34.16;95489.63;5080668;28;20954;-68
2021/05/16 11:21:00;;;;;;;3.83;1.33;;;;;;;19.21;34.28;95478.97;5084799;28;20436;-68
2021/05/16 11:23:26;;;;;;;2.87;0.90;;;;;;;19.01;34.63;95478.50;5094707;28;20428;-68
2021/05/16 11:25:55;;;;;;;3.27;1.07;;;;;;;19.15;33.96;95486.09;5095004;28;20819;-69
2021/05/16 11:28:24;;;;;;;1.77;0.70;;;;;;;19.40;32.81;95468.81;5090203;28;20447;-69
2021/05/16 11:30:50;;;;;;;4.40;1.77;;;;;;;19.58;33.08;95472.97;5094810;28;20423;-67
2021/05/16 11:33:30;;;;;;;4.77;1.23;;;;;;;19.77;32.55;95471.56;5094131;28;20543;-69
2021/05/16 11:35:56;;;;;;;2.30;0.90;;;;;;;19.50;32.78;95466.25;5094860;28;21102;-67
2021/05/16 11:38:26;;;;;;;3.83;1.00;;;;;;;19.36;33.74;95457.91;5078482;28;20455;-68